Time;durP1;ratioP1;P1;durP2;ratioP2;P2;SDS_P1;SDS_P2;PMS_P1;PMS_P2;Temp;Humidity;BMP_temperature;BMP_pressure;BME280_temperature;BME280_humidity;BME280_pressure;Samples;Min_cycle;Max_cycle;Signal;HPM_P1;HPM_P2
2023/10/22 00:00:28;;;;;;;0.50;0.50;;;;;;;12.25;100.00;99330.44;10598398;27;20032;-79
2023/10/22 00:05:28;;;;;;;1.13;1.13;;;;;;;12.25;100.00;99360.28;10582530;28;20035;-79
2023/10/22 00:10:28;;;;;;;0.40;0.40;;;;;;;12.37;100.00;99357.47;10580707;28;20176;-80
2023/10/22 00:15:29;;;;;;;3.10;0.95;;;;;;;12.34;100.00;99350.63;10580864;28;20119;-79
2023/10/22 00:20:30;;;;;;;0.70;0.70;;;;;;;12.28;100.00;99367.94;10579791;28;20097;-79
2023/10/22 00:25:34;;;;;;;0.80;0.80;;;;;;;12.33;100.00;99364.47;10581368;28;20038;-78
2023/10/22 00:30:36;;;;;;;0.30;0.30;;;;;;;12.32;100.00;99389.97;10581477;28;20038;-79
2023/10/22 00:35:36;;;;;;;0.30;0.30;;;;;;;12.33;100.00;99394.31;10581264;28;20093;-79
2023/10/22 00:40:37;;;;;;;3.63;2.03;;;;;;;12.39;100.00;99406.09;10580945;27;20055;-78
2023/10/22 00:45:37;;;;;;;0.40;0.40;;;;;;;12.46;100.00;99413.00;10581335;28;20070;-78
2023/10/22 00:50:41;;;;;;;0.50;0.50;;;;;;;12.45;100.00;99424.13;10581822;28;20118;-78
2023/10/22 00:55:43;;;;;;;0.60;0.60;;;;;;;12.48;100.00;99426.34;10581566;28;20076;-78
2023/10/22 01:00:43;;;;;;;1.13;1.13;;;;;;;12.56;100.00;99442.22;10586197;28;20117;-79
2023/10/22 01:05:43;;;;;;;0.40;0.40;;;;;;;12.67;100.00;99451.38;10581106;28;20366;-79
2023/10/22 01:10:44;;;;;;;0.50;0.50;;;;;;;12.77;100.00;99456.97;10580768;28;20027;-79
2023/10/22 01:15:45;;;;;;;0.60;0.60;;;;;;;12.79;100.00;99471.94;10580127;28;20516;-80
2023/10/22 01:20:46;;;;;;;0.50;0.50;;;;;;;12.87;100.00;99472.59;10579891;28;20396;-79
2023/10/22 01:25:46;;;;;;;0.40;0.40;;;;;;;12.96;100.00;99480.09;10561188;28;20027;-79
2023/10/22 01:30:47;;;;;;;0.40;0.40;;;;;;;13.06;100.00;99490.28;10579819;28;20463;-79
2023/10/22 01:35:47;;;;;;;0.50;0.50;;;;;;;13.15;100.00;99512.44;10579401;28;20577;-79
2023/10/22 01:40:47;;;;;;;0.47;0.47;;;;;;;13.17;100.00;99526.59;10579323;28;20055;-80
2023/10/22 01:45:48;;;;;;;0.40;0.40;;;;;;;13.20;100.00;99551.38;10579331;28;20126;-81
2023/10/22 01:50:48;;;;;;;0.40;0.40;;;;;;;13.06;100.00;99584.59;10590157;28;20107;-83
2023/10/22 01:55:49;;;;;;;0.40;0.40;;;;;;;12.88;100.00;99602.75;10594723;28;20039;-81
2023/10/22 02:00:49;;;;;;;0.40;0.40;;;;;;;12.62;100.00;99616.94;10592969;28;20040;-81
2023/10/22 02:05:49;;;;;;;0.40;0.40;;;;;;;12.47;100.00;99628.31;10587751;28;20040;-81
2023/10/22 02:10:50;;;;;;;0.40;0.40;;;;;;;12.45;100.00;99644.03;10585806;28;20035;-81
2023/10/22 02:15:50;;;;;;;0.40;0.40;;;;;;;12.43;100.00;99659.72;10583454;28;20383;-72
2023/10/22 02:20:56;;;;;;;0.50;0.50;;;;;;;12.41;100.00;99676.28;10585144;27;20027;-71
2023/10/22 02:25:56;;;;;;;0.70;0.70;;;;;;;12.28;100.00;99690.09;10585410;28;20419;-72
2023/10/22 02:30:57;;;;;;;0.90;0.90;;;;;;;12.08;100.00;99723.03;10583140;28;20027;-71
2023/10/22 02:35:57;;;;;;;2.15;2.00;;;;;;;12.03;100.00;99753.59;10583459;28;20039;-71
2023/10/22 02:40:57;;;;;;;0.40;0.40;;;;;;;11.84;100.00;99769.16;10582795;28;20112;-71
2023/10/22 02:45:58;;;;;;;0.65;0.65;;;;;;;11.74;100.00;99774.28;10584972;28;20031;-71
2023/10/22 02:51:03;;;;;;;0.40;0.40;;;;;;;11.55;100.00;99791.66;10591917;28;20368;-71
2023/10/22 02:56:04;;;;;;;0.43;0.43;;;;;;;11.40;100.00;99811.06;10592791;28;20031;-71
2023/10/22 03:01:05;;;;;;;0.40;0.40;;;;;;;11.32;100.00;99828.47;10583097;28;20040;-71
2023/10/22 03:06:07;;;;;;;3.60;1.45;;;;;;;11.27;100.00;99843.78;10564558;28;20154;-71
2023/10/22 03:11:15;;;;;;;0.40;0.40;;;;;;;11.26;100.00;99859.19;10582615;28;20411;-71
2023/10/22 03:16:15;;;;;;;0.30;0.30;;;;;;;11.21;100.00;99867.19;10582879;28;20032;-70
2023/10/22 03:21:17;;;;;;;0.50;0.50;;;;;;;11.17;100.00;99872.25;10582157;28;20043;-71
2023/10/22 03:26:21;;;;;;;0.50;0.50;;;;;;;11.14;100.00;99877.28;10580550;28;20023;-71
2023/10/22 03:31:21;;;;;;;0.55;0.55;;;;;;;11.21;100.00;99891.59;10581671;28;20080;-71
2023/10/22 03:36:22;;;;;;;0.47;0.47;;;;;;;11.19;100.00;99901.81;10580374;28;20073;-70
2023/10/22 03:41:22;;;;;;;0.45;0.45;;;;;;;11.20;100.00;99910.75;10581419;28;20087;-71
2023/10/22 03:46:23;;;;;;;0.40;0.40;;;;;;;11.23;100.00;99921.16;10580780;28;20501;-71
2023/10/22 03:51:24;;;;;;;0.65;0.65;;;;;;;11.26;100.00;99934.25;10580245;28;20035;-70
2023/10/22 03:56:24;;;;;;;0.32;0.32;;;;;;;11.22;100.00;99944.72;10579197;28;20442;-71
2023/10/22 04:01:24;;;;;;;0.40;0.40;;;;;;;11.32;100.00;99965.88;10580192;28;20038;-70
2023/10/22 04:06:25;;;;;;;0.50;0.50;;;;;;;11.32;100.00;99976.72;10579556;28;20039;-71
2023/10/22 04:11:25;;;;;;;0.60;0.60;;;;;;;11.28;100.00;99980.94;10579646;28;20046;-72
2023/10/22 04:16:26;;;;;;;0.40;0.40;;;;;;;11.23;100.00;100003.31;10578465;28;20362;-71
2023/10/22 04:21:27;;;;;;;0.50;0.50;;;;;;;11.16;100.00;100005.22;10579657;28;20031;-70
2023/10/22 04:26:27;;;;;;;0.50;0.50;;;;;;;11.18;100.00;100017.50;10579757;28;20039;-70
2023/10/22 04:31:27;;;;;;;0.30;0.30;;;;;;;11.26;100.00;100034.53;10579580;28;20146;-72
2023/10/22 04:36:28;;;;;;;0.85;0.85;;;;;;;11.20;100.00;100041.69;10577480;28;20042;-70
2023/10/22 04:41:28;;;;;;;0.60;0.60;;;;;;;11.21;100.00;100051.47;10577780;28;20060;-71
2023/10/22 04:46:28;;;;;;;0.80;0.80;;;;;;;11.24;100.00;100055.63;10579392;28;20373;-70
2023/10/22 04:51:29;;;;;;;0.68;0.68;;;;;;;11.28;100.00;100043.28;10577161;28;20055;-71
2023/10/22 04:56:29;;;;;;;0.40;0.40;;;;;;;11.29;100.00;100058.47;10577031;28;20452;-72
2023/10/22 05:01:30;;;;;;;0.40;0.40;;;;;;;11.32;100.00;100063.44;10578340;28;20035;-71
2023/10/22 05:06:30;;;;;;;0.90;0.90;;;;;;;11.31;100.00;100072.66;10578386;28;20065;-71
2023/10/22 05:11:30;;;;;;;0.43;0.43;;;;;;;11.33;100.00;100075.97;10559858;28;20040;-70
2023/10/22 05:16:33;;;;;;;0.40;0.40;;;;;;;11.30;100.00;100084.53;10578659;28;20023;-71
2023/10/22 05:21:34;;;;;;;1.08;1.05;;;;;;;11.24;100.00;100083.53;10578125;28;20066;-71
2023/10/22 05:26:34;;;;;;;0.57;0.57;;;;;;;11.30;100.00;100096.22;10598672;27;20028;-72
2023/10/22 05:31:34;;;;;;;0.32;0.32;;;;;;;11.34;100.00;100110.97;10586001;28;20378;-71
2023/10/22 05:36:35;;;;;;;0.47;0.47;;;;;;;11.35;100.00;100118.03;10586878;27;20036;-71
2023/10/22 05:41:35;;;;;;;0.43;0.43;;;;;;;11.42;100.00;100126.13;10584340;28;20177;-71
2023/10/22 05:46:36;;;;;;;2.17;2.08;;;;;;;11.48;100.00;100146.09;10584594;28;20096;-71
2023/10/22 05:51:36;;;;;;;0.47;0.47;;;;;;;11.52;100.00;100164.44;10584363;28;20111;-71
2023/10/22 05:56:36;;;;;;;0.35;0.35;;;;;;;11.55;100.00;100163.13;10585568;28;20024;-71
2023/10/22 06:01:41;;;;;;;0.43;0.43;;;;;;;11.44;100.00;100178.25;10585273;28;20126;-71
2023/10/22 06:06:42;;;;;;;1.65;1.65;;;;;;;11.26;100.00;100189.84;10586487;28;20024;-71
2023/10/22 06:11:42;;;;;;;0.50;0.50;;;;;;;11.12;100.00;100193.69;10584327;28;20355;-71
2023/10/22 06:16:42;;;;;;;0.57;0.57;;;;;;;11.09;100.00;100204.97;10585756;28;20035;-72
2023/10/22 06:21:43;;;;;;;0.40;0.40;;;;;;;10.86;100.00;100203.66;10584783;28;20079;-72
2023/10/22 06:26:43;;;;;;;0.50;0.50;;;;;;;10.78;100.00;100216.59;10584529;28;20066;-71
2023/10/22 06:31:44;;;;;;;0.30;0.30;;;;;;;10.76;100.00;100224.94;10585209;27;20476;-71
2023/10/22 06:36:44;;;;;;;0.40;0.40;;;;;;;10.76;100.00;100237.66;10583858;28;20199;-72
2023/10/22 06:41:44;;;;;;;0.50;0.50;;;;;;;10.63;100.00;100252.09;10584267;28;20056;-72
2023/10/22 06:46:45;;;;;;;0.70;0.70;;;;;;;10.77;100.00;100267.22;10582368;28;20028;-71
2023/10/22 06:51:45;;;;;;;2.25;1.60;;;;;;;10.74;100.00;100275.78;10582671;28;20036;-71
2023/10/22 06:56:46;;;;;;;0.50;0.50;;;;;;;10.76;100.00;100287.25;10583593;28;20032;-73
2023/10/22 07:01:46;;;;;;;0.75;0.75;;;;;;;10.82;100.00;100297.22;10583402;28;20059;-72
2023/10/22 07:06:47;;;;;;;0.40;0.40;;;;;;;10.80;100.00;100304.72;10581886;28;20035;-71
2023/10/22 07:11:47;;;;;;;0.30;0.30;;;;;;;10.82;100.00;100315.34;10583361;28;20032;-72
2023/10/22 07:16:47;;;;;;;0.55;0.55;;;;;;;12.29;100.00;100325.09;10582765;28;20104;-72
2023/10/22 07:21:48;;;;;;;0.40;0.40;;;;;;;13.31;100.00;100326.50;10582851;28;20098;-73
2023/10/22 07:26:48;;;;;;;0.47;0.47;;;;;;;13.11;100.00;100338.41;10582991;28;20039;-71
2023/10/22 07:31:51;;;;;;;3.85;1.27;;;;;;;12.28;100.00;100353.31;10566132;28;20038;-71
2023/10/22 07:36:52;;;;;;;0.50;0.50;;;;;;;11.93;100.00;100357.53;10582705;28;20076;-73
2023/10/22 07:41:52;;;;;;;0.90;0.90;;;;;;;11.95;100.00;100366.28;10580679;28;20135;-72
2023/10/22 07:46:53;;;;;;;0.50;0.50;;;;;;;11.95;100.00;100369.84;10580953;28;20043;-73
2023/10/22 07:51:53;;;;;;;0.80;0.80;;;;;;;12.01;100.00;100373.56;10581446;28;20095;-71
2023/10/22 07:56:53;;;;;;;0.47;0.47;;;;;;;12.21;100.00;100387.81;10581675;28;20471;-71
2023/10/22 08:01:54;;;;;;;1.85;1.85;;;;;;;12.16;100.00;100390.38;10587869;28;20032;-70
2023/10/22 08:06:54;;;;;;;0.60;0.60;;;;;;;13.25;100.00;100394.34;10589947;28;20036;-74
2023/10/22 08:11:55;;;;;;;0.45;0.45;;;;;;;13.57;100.00;100401.47;10582525;28;20031;-75
2023/10/22 08:16:55;;;;;;;2.15;2.08;;;;;;;12.94;100.00;100417.03;10579693;28;20433;-73
2023/10/22 08:21:55;;;;;;;0.40;0.40;;;;;;;12.60;100.00;100428.44;10578679;28;20069;-73
2023/10/22 08:26:58;;;;;;;0.30;0.30;;;;;;;12.37;100.00;100427.16;10580789;28;20342;-74
2023/10/22 08:31:59;;;;;;;1.95;1.58;;;;;;;12.36;100.00;100427.38;10519511;27;20043;-70
2023/10/22 08:36:59;;;;;;;0.40;0.40;;;;;;;12.41;100.00;100430.25;10555790;28;20048;-73
2023/10/22 08:42:02;;;;;;;0.40;0.40;;;;;;;12.44;100.00;100440.66;10580086;28;20148;-73
2023/10/22 08:47:03;;;;;;;0.50;0.50;;;;;;;12.41;100.00;100441.09;10597356;27;20086;-74
2023/10/22 08:52:04;;;;;;;0.52;0.52;;;;;;;12.42;100.00;100450.94;10580304;28;20034;-74
2023/10/22 08:57:04;;;;;;;2.13;2.03;;;;;;;12.51;100.00;100466.75;10577976;28;20027;-73
2023/10/22 09:02:09;;;;;;;0.82;0.82;;;;;;;12.52;100.00;100473.00;10579869;28;20023;-73
2023/10/22 09:07:10;;;;;;;0.40;0.40;;;;;;;12.77;100.00;100479.28;10578571;28;20089;-75
2023/10/22 09:12:12;;;;;;;2.65;2.55;;;;;;;12.74;100.00;100485.16;10580223;28;20038;-74
2023/10/22 09:17:19;;;;;;;0.88;0.88;;;;;;;12.79;100.00;100492.63;10579485;28;20020;-74
2023/10/22 09:22:25;;;;;;;0.82;0.82;;;;;;;12.93;100.00;100493.34;10579216;28;20442;-75
2023/10/22 09:27:28;;;;;;;0.43;0.43;;;;;;;13.71;100.00;100493.56;10579160;28;20507;-75
2023/10/22 09:32:29;;;;;;;0.60;0.60;;;;;;;14.75;100.00;100495.28;10580306;28;20431;-77
2023/10/22 09:37:29;;;;;;;1.50;1.40;;;;;;;16.21;100.00;100495.22;10562502;28;20032;-76
2023/10/22 09:42:30;;;;;;;1.25;1.15;;;;;;;17.87;100.00;100510.97;10561820;28;20062;-76
2023/10/22 09:47:30;;;;;;;0.55;0.55;;;;;;;18.49;100.00;100501.47;10563066;28;20035;-75
2023/10/22 09:52:30;;;;;;;0.50;0.50;;;;;;;17.02;100.00;100504.00;10562631;28;20028;-74
2023/10/22 09:57:31;;;;;;;0.50;0.50;;;;;;;15.74;100.00;100514.47;10579527;28;20028;-74
2023/10/22 10:02:32;;;;;;;0.75;0.75;;;;;;;15.55;100.00;100525.50;10579680;28;20050;-73
2023/10/22 10:07:32;;;;;;;0.40;0.40;;;;;;;15.03;100.00;100530.06;10561877;28;20443;-73
2023/10/22 10:12:35;;;;;;;0.70;0.70;;;;;;;16.52;100.00;100529.38;10584981;28;20572;-76
2023/10/22 10:17:54;;;;;;;4.88;2.63;;;;;;;17.88;100.00;100541.91;10587284;28;20427;-74
2023/10/22 10:23:08;;;;;;;4.13;2.00;;;;;;;18.80;100.00;100540.19;10589607;28;20031;-75
2023/10/22 10:28:09;;;;;;;2.45;2.22;;;;;;;18.53;100.00;100551.94;10601426;28;20031;-74
2023/10/22 10:33:12;;;;;;;4.28;1.77;;;;;;;17.65;100.00;100562.94;10602313;28;20099;-74
2023/10/22 10:38:19;;;;;;;2.45;1.80;;;;;;;16.56;100.00;100554.31;10597270;28;20027;-74
2023/10/22 10:43:20;;;;;;;2.95;2.40;;;;;;;15.90;100.00;100573.78;10588423;28;20039;-75
2023/10/22 10:48:45;;;;;;;1.73;1.70;;;;;;;15.61;100.00;100574.78;10585544;28;20055;-75
2023/10/22 10:54:00;;;;;;;3.22;2.25;;;;;;;17.57;100.00;100571.59;10574655;28;20043;-73
2023/10/22 10:59:01;;;;;;;7.35;1.77;;;;;;;18.61;100.00;100564.38;10585836;28;20031;-76
2023/10/22 11:04:08;;;;;;;1.38;1.35;;;;;;;17.34;100.00;100567.16;10586467;28;20031;-75
2023/10/22 11:09:08;;;;;;;3.00;2.40;;;;;;;17.84;100.00;100579.13;10585417;28;20034;-76
2023/10/22 11:14:12;;;;;;;12.05;2.28;;;;;;;19.58;100.00;100576.16;10583800;28;20446;-76
2023/10/22 11:19:22;;;;;;;3.13;1.67;;;;;;;19.95;100.00;100572.56;10584945;28;20410;-75
2023/10/22 11:24:28;;;;;;;7.13;1.73;;;;;;;18.91;100.00;100590.47;10584066;28;20084;-77
2023/10/22 11:29:29;;;;;;;0.93;0.93;;;;;;;18.03;100.00;100591.44;10587081;28;20122;-76
2023/10/22 11:34:29;;;;;;;3.22;1.20;;;;;;;16.78;100.00;100601.75;10587002;28;20038;-75
2023/10/22 11:39:36;;;;;;;4.75;2.42;;;;;;;15.85;100.00;100600.16;10583273;28;20442;-76
2023/10/22 11:44:36;;;;;;;3.60;2.22;;;;;;;17.62;100.00;100606.44;10586096;28;20104;-76
2023/10/22 11:49:45;;;;;;;2.92;1.55;;;;;;;17.37;100.00;100621.38;10583203;28;20111;-74
2023/10/22 11:54:45;;;;;;;3.40;1.50;;;;;;;16.51;100.00;100626.94;10582695;28;20020;-75
2023/10/22 11:59:46;;;;;;;2.28;2.10;;;;;;;15.96;100.00;100635.66;10584657;28;20062;-77
2023/10/22 12:04:47;;;;;;;2.38;1.30;;;;;;;15.40;100.00;100638.94;10589580;28;20047;-77
2023/10/22 12:09:47;;;;;;;2.05;1.90;;;;;;;15.23;100.00;100649.72;10584014;28;20072;-76
2023/10/22 12:14:48;;;;;;;4.78;1.85;;;;;;;16.28;100.00;100646.97;10582608;28;20027;-76
2023/10/22 12:19:48;;;;;;;8.15;2.15;;;;;;;17.96;100.00;100656.50;10564238;28;20177;-75
2023/10/22 12:24:51;;;;;;;0.88;0.88;;;;;;;18.30;100.00;100660.00;10579013;28;20040;-74
2023/10/22 12:29:51;;;;;;;2.50;1.33;;;;;;;18.70;100.00;100666.25;10579734;28;20075;-73
2023/10/22 12:34:52;;;;;;;6.40;1.58;;;;;;;18.71;100.00;100667.91;10579100;28;20323;-73
2023/10/22 12:39:52;;;;;;;1.50;1.40;;;;;;;18.72;100.00;100675.88;10581099;28;20032;-73
2023/10/22 12:44:52;;;;;;;1.02;1.00;;;;;;;18.94;100.00;100689.56;10578845;28;20031;-74
2023/10/22 12:49:53;;;;;;;3.03;1.05;;;;;;;17.62;100.00;100685.84;10578657;28;20112;-73
2023/10/22 12:54:53;;;;;;;1.42;1.00;;;;;;;16.98;100.00;100694.31;10598693;27;20063;-74
2023/10/22 12:59:54;;;;;;;5.38;1.92;;;;;;;16.53;100.00;100703.25;10583545;28;20039;-71
2023/10/22 13:04:54;;;;;;;1.05;1.05;;;;;;;16.37;100.00;100709.44;10583952;28;20028;-75
2023/10/22 13:09:54;;;;;;;1.35;1.27;;;;;;;16.36;100.00;100708.63;10580235;28;20048;-74
2023/10/22 13:14:55;;;;;;;2.95;1.25;;;;;;;16.34;100.00;100710.78;10579849;28;20065;-74
2023/10/22 13:19:55;;;;;;;1.15;1.08;;;;;;;15.72;100.00;100724.91;10578886;28;20028;-74
2023/10/22 13:24:56;;;;;;;3.53;1.52;;;;;;;15.41;100.00;100733.38;10579507;28;20040;-75
2023/10/22 13:29:56;;;;;;;2.45;1.75;;;;;;;15.42;100.00;100722.25;10578533;28;20082;-74
2023/10/22 13:34:57;;;;;;;1.77;1.67;;;;;;;15.17;100.00;100738.75;10578521;28;20470;-72
2023/10/22 13:39:57;;;;;;;6.35;1.67;;;;;;;15.34;100.00;100738.94;10577573;28;20036;-74
2023/10/22 13:44:58;;;;;;;4.90;1.83;;;;;;;15.93;100.00;100739.06;10578533;28;20074;-73
2023/10/22 13:49:58;;;;;;;1.92;1.58;;;;;;;16.56;100.00;100742.91;10586530;28;20539;-73
2023/10/22 13:54:59;;;;;;;1.67;1.52;;;;;;;16.26;100.00;100747.47;10601114;27;20032;-74
2023/10/22 13:59:59;;;;;;;1.70;1.42;;;;;;;16.58;100.00;100755.28;10585351;28;20115;-73
2023/10/22 14:05:00;;;;;;;6.82;1.67;;;;;;;16.44;100.00;100760.19;10601463;27;20048;-74
2023/10/22 14:10:00;;;;;;;1.02;1.02;;;;;;;16.22;100.00;100759.97;10585078;28;20446;-74
2023/10/22 14:15:01;;;;;;;3.72;1.83;;;;;;;16.24;100.00;100770.66;10585599;28;20122;-72
2023/10/22 14:20:01;;;;;;;1.05;1.05;;;;;;;16.41;100.00;100763.41;10585436;27;20339;-74
2023/10/22 14:25:02;;;;;;;5.18;0.90;;;;;;;16.49;100.00;100775.84;10584120;28;20084;-73
2023/10/22 14:30:03;;;;;;;1.00;1.00;;;;;;;16.17;100.00;100781.69;10583910;28;20466;-74
2023/10/22 14:35:04;;;;;;;1.08;0.82;;;;;;;16.07;100.00;100783.38;10584730;28;20073;-74
2023/10/22 14:40:06;;;;;;;0.85;0.82;;;;;;;16.12;100.00;100792.53;10583262;28;20457;-73
2023/10/22 14:45:08;;;;;;;5.50;1.58;;;;;;;15.78;100.00;100799.59;10584974;28;20082;-74
2023/10/22 14:50:09;;;;;;;0.60;0.60;;;;;;;15.23;100.00;100803.31;10584949;28;20036;-72
2023/10/22 14:55:09;;;;;;;1.50;1.40;;;;;;;15.34;100.00;100821.59;10584448;28;20382;-71
2023/10/22 15:00:10;;;;;;;1.27;1.17;;;;;;;15.27;100.00;100807.22;10584685;28;20076;-73
2023/10/22 15:05:10;;;;;;;9.50;2.33;;;;;;;15.20;100.00;100819.31;10581980;28;20479;-72
2023/10/22 15:10:10;;;;;;;2.67;1.42;;;;;;;14.82;100.00;100826.69;10583738;27;20043;-73
2023/10/22 15:15:11;;;;;;;1.10;1.10;;;;;;;14.33;100.00;100831.16;10582368;27;20042;-73
2023/10/22 15:20:12;;;;;;;3.83;1.90;;;;;;;14.10;100.00;100830.94;10583291;28;20131;-73
2023/10/22 15:25:12;;;;;;;3.88;0.98;;;;;;;13.91;100.00;100838.19;10583324;28;20107;-74
2023/10/22 15:30:13;;;;;;;1.23;1.13;;;;;;;13.71;100.00;100836.47;10584697;28;20027;-72
2023/10/22 15:35:13;;;;;;;1.20;1.20;;;;;;;13.54;100.00;100832.59;10586207;28;20080;-74
2023/10/22 15:40:14;;;;;;;1.70;1.10;;;;;;;13.43;100.00;100845.03;10581974;28;20031;-73
2023/10/22 15:45:15;;;;;;;0.98;0.98;;;;;;;13.30;100.00;100855.13;10583514;28;20047;-71
2023/10/22 15:50:16;;;;;;;1.75;1.55;;;;;;;13.14;100.00;100862.69;10581415;28;20031;-71
2023/10/22 15:55:16;;;;;;;2.42;1.30;;;;;;;13.01;100.00;100865.44;10581975;28;20328;-73
2023/10/22 16:00:17;;;;;;;9.98;1.80;;;;;;;12.95;100.00;100869.03;10563127;28;20027;-74
2023/10/22 16:05:18;;;;;;;3.22;1.55;;;;;;;12.79;100.00;100870.31;10579963;28;20028;-74
2023/10/22 16:10:18;;;;;;;8.98;1.60;;;;;;;12.71;100.00;100886.88;10596163;27;20039;-74
2023/10/22 16:15:20;;;;;;;2.85;1.48;;;;;;;12.51;100.00;100887.72;10596837;27;20073;-73
2023/10/22 16:20:20;;;;;;;2.08;1.58;;;;;;;12.44;100.00;100888.78;10580762;28;20055;-72
2023/10/22 16:25:21;;;;;;;4.03;2.22;;;;;;;12.40;100.00;100895.69;10580940;28;20110;-73
2023/10/22 16:30:22;;;;;;;2.05;1.92;;;;;;;12.39;100.00;100905.69;10581427;28;20036;-73
2023/10/22 16:35:22;;;;;;;5.43;1.35;;;;;;;12.46;100.00;100905.69;10579197;28;20031;-74
2023/10/22 16:40:23;;;;;;;2.22;1.67;;;;;;;12.46;100.00;100919.28;10579377;28;20055;-73
2023/10/22 16:45:24;;;;;;;1.67;1.50;;;;;;;12.34;100.00;100924.50;10581298;28;20039;-72
2023/10/22 16:50:25;;;;;;;2.33;1.50;;;;;;;12.22;100.00;100927.00;10578405;28;20042;-74
2023/10/22 16:55:26;;;;;;;1.38;1.27;;;;;;;12.04;100.00;100924.06;10580184;28;20068;-73
2023/10/22 17:00:26;;;;;;;3.35;2.20;;;;;;;11.97;100.00;100934.91;10579547;28;20060;-71
2023/10/22 17:05:27;;;;;;;1.10;1.10;;;;;;;11.81;100.00;100946.13;10578631;28;20024;-71
2023/10/22 17:10:27;;;;;;;2.83;2.63;;;;;;;11.68;100.00;100957.75;10560479;28;20172;-73
2023/10/22 17:15:30;;;;;;;4.20;2.60;;;;;;;11.58;100.00;100965.41;10580590;28;20460;-73
2023/10/22 17:20:31;;;;;;;4.25;2.10;;;;;;;11.54;100.00;100972.28;10583574;28;20050;-73
2023/10/22 17:25:31;;;;;;;2.63;2.08;;;;;;;11.40;100.00;100976.84;10587400;28;20054;-74
2023/10/22 17:30:34;;;;;;;1.65;1.55;;;;;;;11.19;100.00;100975.03;10588692;28;20059;-73
2023/10/22 17:35:34;;;;;;;1.65;1.55;;;;;;;10.99;100.00;100987.63;10604633;27;20031;-72
2023/10/22 17:40:38;;;;;;;2.13;1.92;;;;;;;10.77;100.00;100997.69;10587228;28;20052;-71
2023/10/22 17:45:39;;;;;;;4.00;1.85;;;;;;;10.57;100.00;100995.66;10587325;28;20447;-73
2023/10/22 17:50:39;;;;;;;1.55;1.45;;;;;;;10.49;100.00;101012.03;10587715;28;20028;-74
2023/10/22 17:55:40;;;;;;;1.42;1.40;;;;;;;10.34;100.00;101016.66;10593171;28;20043;-73
2023/10/22 18:00:41;;;;;;;2.38;2.17;;;;;;;10.25;100.00;101016.78;10596098;28;20028;-72
2023/10/22 18:05:41;;;;;;;3.97;2.92;;;;;;;10.23;100.00;101024.22;10587717;28;20031;-71
2023/10/22 18:10:57;;;;;;;12.02;4.10;;;;;;;10.13;100.00;101028.28;10595740;28;20180;-73
2023/10/22 18:15:58;;;;;;;3.80;3.43;;;;;;;10.09;100.00;101033.25;10592087;28;20080;-73
2023/10/22 18:21:02;;;;;;;6.53;3.17;;;;;;;10.06;100.00;101038.22;10586272;28;20181;-73
2023/10/22 18:26:03;;;;;;;5.78;2.65;;;;;;;9.95;100.00;101036.81;10586621;28;20035;-73
2023/10/22 18:31:07;;;;;;;3.28;3.05;;;;;;;9.83;100.00;101043.75;10586254;28;20034;-73
2023/10/22 18:36:08;;;;;;;5.57;2.60;;;;;;;9.78;100.00;101044.31;10601091;27;20084;-73
2023/10/22 18:41:13;;;;;;;3.50;3.20;;;;;;;9.68;100.00;101052.72;10583454;28;20067;-73
2023/10/22 18:46:14;;;;;;;5.68;4.20;;;;;;;9.58;100.00;101060.28;10549994;28;20036;-73
2023/10/22 18:51:15;;;;;;;2.92;2.72;;;;;;;9.47;100.00;101071.56;10567043;28;20024;-72
2023/10/22 18:56:15;;;;;;;5.70;4.13;;;;;;;9.61;100.00;101078.00;10565912;28;20114;-72
2023/10/22 19:01:26;;;;;;;3.90;3.58;;;;;;;9.57;100.00;101079.38;10600360;27;20092;-72
2023/10/22 19:06:30;;;;;;;5.72;3.65;;;;;;;9.45;100.00;101087.97;10583626;28;20369;-74
2023/10/22 19:11:31;;;;;;;9.93;5.00;;;;;;;9.34;100.00;101096.53;10584284;28;20390;-72
2023/10/22 19:16:32;;;;;;;3.80;3.45;;;;;;;9.22;100.00;101104.25;10582237;28;20123;-73
2023/10/22 19:21:33;;;;;;;5.15;4.00;;;;;;;9.14;100.00;101109.72;10583898;28;20148;-75
2023/10/22 19:26:34;;;;;;;10.27;4.28;;;;;;;9.12;100.00;101105.53;10584358;28;20227;-71
2023/10/22 19:31:37;;;;;;;13.68;4.80;;;;;;;9.07;100.00;101115.03;10581911;28;20459;-73
2023/10/22 19:36:37;;;;;;;8.55;4.00;;;;;;;9.00;100.00;101118.66;10598015;27;20032;-73
2023/10/22 19:41:38;;;;;;;6.45;4.20;;;;;;;8.92;100.00;101108.72;10582763;28;20135;-75
2023/10/22 19:46:38;;;;;;;6.57;4.22;;;;;;;8.99;100.00;101123.19;10582388;27;20035;-72
2023/10/22 19:51:38;;;;;;;11.90;4.90;;;;;;;8.90;100.00;101118.88;10581774;28;20180;-72
2023/10/22 19:56:39;;;;;;;11.68;5.13;;;;;;;8.74;100.00;101124.41;10581736;28;20430;-73
2023/10/22 20:01:39;;;;;;;5.97;5.10;;;;;;;8.69;100.00;101129.50;10581037;28;20104;-73
2023/10/22 20:06:41;;;;;;;5.53;5.03;;;;;;;8.66;100.00;101137.97;10581866;28;20032;-72
2023/10/22 20:11:42;;;;;;;5.50;4.70;;;;;;;8.71;100.00;101144.53;10580580;28;20031;-73
2023/10/22 20:16:43;;;;;;;8.50;4.63;;;;;;;8.85;100.00;101148.28;10579811;28;20481;-72
2023/10/22 20:21:43;;;;;;;9.43;6.13;;;;;;;8.80;100.00;101140.72;10583497;28;20432;-73
2023/10/22 20:26:43;;;;;;;5.20;4.72;;;;;;;8.74;100.00;101146.88;10582502;28;20092;-72
2023/10/22 20:31:44;;;;;;;5.03;3.85;;;;;;;8.69;100.00;101153.81;10580608;28;20230;-73
2023/10/22 20:36:45;;;;;;;5.65;4.65;;;;;;;8.79;100.00;101154.41;10578126;28;20063;-72
2023/10/22 20:41:46;;;;;;;3.90;3.50;;;;;;;8.71;100.00;101157.16;10579931;28;20055;-72
2023/10/22 20:46:47;;;;;;;5.50;3.30;;;;;;;8.62;100.00;101156.41;10579924;28;20411;-71
2023/10/22 20:51:47;;;;;;;4.35;3.95;;;;;;;8.54;100.00;101162.66;10579368;28;20114;-72
2023/10/22 20:56:48;;;;;;;7.97;4.38;;;;;;;8.48;100.00;101162.53;10577530;28;20550;-71
2023/10/22 21:01:48;;;;;;;5.40;4.10;;;;;;;8.47;100.00;101161.69;10579131;28;20058;-73
2023/10/22 21:06:49;;;;;;;7.47;5.07;;;;;;;8.41;100.00;101159.72;10579555;28;20058;-70
2023/10/22 21:11:49;;;;;;;12.38;5.28;;;;;;;8.35;100.00;101160.38;10579158;28;20071;-71
2023/10/22 21:16:49;;;;;;;7.50;5.05;;;;;;;8.41;100.00;101159.72;10578721;28;20494;-72
2023/10/22 21:21:50;;;;;;;9.25;5.03;;;;;;;8.52;100.00;101156.63;10579227;28;20179;-72
2023/10/22 21:26:51;;;;;;;9.90;5.75;;;;;;;8.71;100.00;101166.13;10560073;28;20562;-72
2023/10/22 21:31:51;;;;;;;5.88;4.53;;;;;;;8.89;100.00;101168.50;10561552;28;20036;-72
2023/10/22 21:36:52;;;;;;;7.13;5.72;;;;;;;8.87;100.00;101159.78;10560346;28;20076;-71
2023/10/22 21:41:52;;;;;;;6.30;4.32;;;;;;;8.99;100.00;101155.59;10579466;28;20348;-73
2023/10/22 21:46:54;;;;;;;5.30;4.85;;;;;;;9.04;100.00;101150.50;10578060;28;20460;-72
2023/10/22 21:51:54;;;;;;;7.13;4.90;;;;;;;9.13;100.00;101166.66;10576054;28;20028;-71
2023/10/22 21:56:55;;;;;;;6.63;4.38;;;;;;;9.16;100.00;101172.53;10577976;28;20032;-72
2023/10/22 22:01:55;;;;;;;4.70;4.25;;;;;;;9.19;100.00;101166.78;10579001;28;20075;-72
2023/10/22 22:06:56;;;;;;;6.63;3.40;;;;;;;9.15;100.00;101172.69;10580460;28;20043;-73
2023/10/22 22:11:56;;;;;;;5.72;4.95;;;;;;;9.10;100.00;101169.72;10568167;28;20024;-73
2023/10/22 22:16:56;;;;;;;4.70;3.38;;;;;;;9.15;100.00;101187.03;10586559;28;20035;-72
2023/10/22 22:21:57;;;;;;;3.95;3.65;;;;;;;9.26;100.00;101189.34;10586594;28;20036;-72
2023/10/22 22:26:57;;;;;;;4.55;4.00;;;;;;;9.45;100.00;101196.09;10586091;28;20036;-72
2023/10/22 22:31:58;;;;;;;6.00;4.40;;;;;;;9.62;100.00;101201.34;10584735;28;20096;-72
2023/10/22 22:36:58;;;;;;;6.82;4.07;;;;;;;9.78;100.00;101203.88;10586695;28;20141;-73
2023/10/22 22:41:59;;;;;;;6.18;4.85;;;;;;;9.90;100.00;101188.88;10587182;28;20146;-73
2023/10/22 22:46:59;;;;;;;10.02;4.45;;;;;;;10.09;100.00;101202.88;10569074;28;20035;-73
2023/10/22 22:51:59;;;;;;;6.50;4.30;;;;;;;10.17;100.00;101197.34;10587781;28;20242;-73